EGJB

Guernsey Airport

Airport
ICAO code
EGJB
IATA Code
GCI
Summary
ICAO Region
EUR
ICAO Territory
Location

Forest, Guernsey

Serving
St. Peter Port
Elevation
336 ft
Coordinates
49° 26' 3" N , 2° 36' 3" W
KCC
Metar
Observation
EGJB 281020Z 27015KT 9999 VCSH FEW014CB 10/06 Q1009
Station
Guernsey Airport
Date/Time
2022-11-28 10:20:00
Wind direction
270°
Wind speed
15 kts
Lowest cloud amount
few clouds
Temperature
10°C
Dew point
6°C
Humidity
76%
QNH
1009 hPa
Weather condition
in vicinity: showers

Description

Guernsey Airport is the only one on the Channel Island of Guernsey, a self-governing British Crown Dependency. It is located 2.5 nm west south west of St. Peter Port, the Island's main town.

Climatology

Temperate Marine climate/Oceanic climate (Köppen climate classification Cfb) - Moderately cool summer and comparatively warm winter.

Runways

Designator Length Width Surface Rops
9/27 1463 45 ASP Yes/Yes

SKYbrary Partners:

Safety knowledge contributed by: